Direkt zum Seiteninhalt

Sie sind hier: 16. Eibenstocker 3-Talsperren-Marathon - Ergebnisliste vom 17.09.2011

Ergebnisarchiv > 2011
KURZSTRECKE 8 km LAUF
PlatzPl.mPl.wStnr.Name,VornameVereinGJAKAkmAkwEndzeitRückst.WB
11 1554Mende, StephanStadtwerke-enrigo Team Reichenbach81M301 0:31:000:00:004
22 1482Seidel, StefanSG Adelsberg93mJugA1 0:31:550:00:554
33 1560Bock, MaikLaufclub Oelsnitz/Erzg.92mJugA2 0:31:590:00:594
44 1532Lorenz, SwenSG Neukirchen / Erzg.72M351 0:32:530:01:534
55 1566Linser, PhilippLB Schwarzenberg 9083M201 0:33:360:02:364
66 1508Unger, PhilippSV Stützengrün98mSchB1 0:34:020:03:024
77 1493Urban, AndreasVS Röthenbach61M501 0:34:070:03:074
88 1450Kummer, RalfLichtenstein90M202 0:34:270:03:274
99 1535Schmiedel, MichaelVital Schneeberg83M203 0:35:150:04:154
1010 1523Schreier, AndreSkiverein Stützengrün70M401 0:35:520:04:524
1111 1544Stein, KarstenSchwarzenberg90M204 0:36:040:05:044
1212 1509Unger, MikeUnger&Unger GbR70M402 0:36:270:05:274
1313 1549Kinzel, MichaelSG Motor Freital84M205 0:36:320:05:324
1414 1547Börner, SvenHerz aus Silber92mJugA3 0:36:450:05:454
1515 1552Stöber, TorstenVorwärts Zwickau71M403 0:36:540:05:544
1616 1459May, ChristophTSV 1872 Pobershau44M651 0:37:010:06:014
1717 1400Anders, SebastianSkiverein Schönheide e.V.93mJugA4 0:37:190:06:194
1818 1522Schreier, MichelSkiverein Stützengrün97mSchA1 0:37:220:06:224
1919 1439John, StefanAKS Plauen69M404 0:37:300:06:304
2020 1416Fiebig, OlafAlbernau64M451 0:37:460:06:464
2121 1527Werner, ErikVital Center Schneeberg87M206 0:38:290:07:294
2222 1558Gröndler, JochenSG Adelsberg62M452 0:38:420:07:424
23 11559Gründler, AnneSG Adelsberg89W20 10:38:440:07:444
2423 1410Burkhardt, AndréSV Neudorf88M207 0:39:120:08:124
2524 1444Krauß, MarkusSpoKuV der KSK Aue-Schwarzenberg75M352 0:39:190:08:194
2625 1422Fuchs, NickySkiverein Stützengrün71M405 0:39:300:08:304
2726 1464Odendahl, HendrikLSV Dresden74M353 0:40:090:09:094
2827 1501Weiß, RonnySportpark Rabenberg eV.75M354 0:40:280:09:284
29 21432Harbig, DanielaLV Limbach 200070W40 10:40:380:09:384
3028 1495Schindler, LutzMSV Eintracht Halberstadt46M652 0:40:410:09:414
3129 1441Kehrer, DanielKraftsportfreunde Sosa92mJugA5 0:41:090:10:094
3230 1460Mothes, WolfgangAuerbach/Reumtengrün48M601 0:41:130:10:134
3331 1517Staab, UweMarathonverein Eibenstock62M453 0:41:200:10:204
3432 1418Jaretzki, LotharZschorlau58M502 0:41:350:10:354
3533 1525Neumann, HeikoSV Stützengrün72M355 0:41:390:10:394
3533 1569von Müller, JakobZwönitzer HSV4mSchC1 0:41:390:10:394
3735 1491Unger, LutzSosa59M503 0:41:410:10:414
3836 1521Schmidt, SebastianLößnitz84M208 0:41:420:10:424
3937 1551Junghänel, MarkusLengenfeld80M302 0:41:570:10:574
4038 1461Mühlbauer, FalkTV-Rodewisch70M406 0:42:010:11:014
41 31417Hunger, SylviaRaschau-Markersbach79W30 10:42:130:11:134
4239 1565Melzer, LutzBML-Technik64M454 0:42:190:11:194
4340 1545Wagner, TobiasJena82M209 0:42:210:11:214
4441 1413Fache, HenriLV Limbach 200094mJugB1 0:42:220:11:224
4542 1406Bernstein, FriedrichHetzdorfer SV 199092mJugA6 0:42:250:11:254
4643 1407Bochmann, SvenNürnberg83M2010 0:42:390:11:394
4744 1427Glöckner, WolfgangLV Limbach 200040M701 0:43:170:12:174
4845 1447Kremling, UdoTV Helmbrechts64M455 0:43:360:12:364
4946 1475Schikowski, DanielHelmholtzschule Leipzig86M2011 0:43:430:12:434
50 41401Anus, MelanieSkiverein Schönheide e.V.93wJugA 10:43:450:12:454
5147 1408Böhm, EnricoMülsen66M456 0:43:460:12:464
5248 1556Lange, RolandPostsportverein Chemnitz35M751 0:43:530:12:534
5349 1533Vogelsang, MikaelBernsbach73M356 0:43:580:12:584
54 51435Hermann, AnneUSZ TU Dresden87W20 20:44:020:13:024
54 51500Weigel, UrsulaLG Thalheim56W55 10:44:020:13:024
56 71463Odendahl, TanjaLSV Dresden74W35 10:44:050:13:054
5750 1561Kunath, AndreChemnitz73M357 0:44:060:13:064
5851 1429Hahn, ThomasSchwarzenberg86M2012 0:44:100:13:104
5952 1452Lenk, UlliSchönheide59M504 0:44:120:13:124
6053 1405Bernstein, ChristianKirchberg84M2013 0:44:160:13:164
61 81546Frohs, RamonaHerz aus Silber64W45 10:44:210:13:214
62 91534Winkler, KerstinChemnitzer LV Megware72W35 20:44:240:13:244
6354 1512May, WalterSV 1870 Großolbersdorf45M653 0:44:250:13:254
6455 1528Werner, MarcoSV Brünlasberg Fußball90M2014 0:44:290:13:294
6556 1474Riedel, LudwigSV Stützengrün95mJugB2 0:44:340:13:344
6657 1472Rentzsch, HendrikChemnitz83M2015 0:44:470:13:474
6758 1421Frieß, UweChemnitz81M303 0:44:480:13:484
6859 1415Fankhänel, WernerLG Vogtland41M702 0:44:520:13:524
69 101555Goldstein, AnjaHerz aus Silber Freiberg71W40 20:45:010:14:014
7060 1563Schwarz, RüdigerRace Team Schwarz71M407 0:45:070:14:074
71 111424Gelfert, LisaSkiverein Schönheide e.V.93wJugA 20:45:160:14:164
7261 1505Möckel, FrankEibenstock70M408 0:45:190:14:194
73 121411Elsner, HendrikjeSchönheide70W40 30:45:320:14:324
7462 1542Benedict, JensSV Neudorf85M2016 0:45:450:14:454
75 131530Bräuer, RiaZwönitzer HSV 192871W40 40:45:470:14:474
7663 1540Müller, JürgenLG Geyer42M654 0:45:570:14:574
7764 1455Mann, Martin1.ASV Annaberg99mSchB2 0:46:060:15:064
78 141458Mantey, DanutaGrimma50W60 10:46:140:15:144
7965 1423Fuchs, LucaSkiverein Stützengrün99mSchB3 0:46:190:15:194
8066 1543Pecher, ThomasSpoKuV der KSK Aue-Schwarzenberg69M409 0:46:260:15:264
8167 1548Weidlich, JohannesSkiverein Schönheide48M602 0:46:480:15:484
8268 1433Hecht, PhilippLV Limbach 200093mJugA7 0:46:520:15:524
83 151428Gropp, IsabellaDJSV Pechtelsgrün86W20 30:47:030:16:034
8469 1442Klingeberg, ToralfRüdersdorf70M4010 0:47:210:16:214
85 161466Olisauskaite, IndrePSV Leipzig91W20 40:47:280:16:284
86 171496Walter, Annett1. ASV Annaberg67W40 50:47:370:16:374
8770 1425Georgi, PeterBockau52M551 0:48:070:17:074
88 181478Schramm, YvonneChemnitz75W35 30:48:130:17:134
89 191449Kümmel, VerenaLaufgemeinschaft am Kreyerberg71W40 60:48:210:17:214
90 201481Seidel, Kerstinprivat63W45 20:48:220:17:224
9171 1468Pügner, Michaelvital schneeber87M2017 0:48:350:17:354
92 211568von Müller, PaulineZwönitzer HSV99wSchB 10:48:390:17:394
9372 1486Sickor, Steffensosa65M457 0:48:430:17:434
94 221498Walter, Dorothee1. ASV Annaberg98wSchB 20:48:560:17:564
9573 1402Bartl, ReinerSuL Lößnitz36M752 0:48:570:17:574
9573 1510Walter, MarcelAnnaberg Buchholz67M4011 0:48:570:17:574
9775 1431Hänel, MariusSSV 1863 Sayda96mSchA2 0:48:590:17:594
9876 1462Müller, Manfredsc 1903 weimar40M703 0:49:020:18:024
99 231465Oehlschlägel, Lisa MarieLV Limbach 200094wJugB 10:49:050:18:054
100 241507Rabenhold, JennyEinsiedler SV98wSchB 30:49:100:18:104
101 251562Schwarz, InesRace Team Schwarz71W40 70:49:120:18:124
10277 1524Dickescheid, StephanBernsbach53M552 0:49:140:18:144
103 261467Pechmann, YvonneHamburg74W35 40:49:290:18:294
10478 1537Lehm, HeikoStollberg68M4012 0:49:480:18:484
105 271550Baumann, GabiLößnitz63W45 30:50:060:19:064
10679 1553Hercht, Karl-HeinzZschopau40M704 0:50:190:19:194
10780 1456Mann, AndreasAnnaberg-Buchholz66M458 0:50:300:19:304
108 281492Unger, Carmenvital schneeberg61W50 10:50:320:19:324
109 291426Glaß, UrsulaVital56W55 20:50:410:19:414
110 301434Helke, TinaTEAM STEMPELBREMSE83W20 50:50:500:19:504
11181 1564Merker, GunderPost SV Chemnitz47M603 0:50:520:19:524
112 311506Unger, SarahSkiverein Schönheide89W20 60:51:210:20:214
113 321473Richter, UteLaufverein Am Kreyerberg64W45 40:51:270:20:274
11482 1483Seidel, UlrichMarathonverein Eibenstock e.V.67M4013 0:51:440:20:444
115 331443Kondziela, SylviaLauter76W35 50:51:510:20:514
116 341409Böhm, JacquelineMülsen69W40 80:51:530:20:534
117 351451Künze, KatrinPlauen85W20 70:52:200:21:204
11883 1541Möckel, UweCrottendorf67M4014 0:52:410:21:414
119 361454Mann, Elise Maria1.ASV Annaberg3wSchC 10:52:420:21:424
120 371494Urban, BarbaraVS Röthenbach63W45 50:52:430:21:434
12084 1529Hoffmann, JoachimTSV Elektronik Gornsdorf49M604 0:52:430:21:434
122 381457Mann, ManjaAnnaberg-Buchholz74W35 60:52:450:21:454
12385 1488Skibinski, Andreas-MatheasVSG Rodewisch37M705 0:53:120:22:124
124 391430Hänel, KatrinSSV 1863 Sayda67W40 90:53:150:22:154
125 401437Heyn, JeannetteVital Schneeberg72W35 70:53:210:22:214
12586 1489Sroka, Jonnyfriends of triathlon58M505 0:53:210:22:214
127 411412Ertl, InaWeischlitz75W35 80:53:250:22:254
12887 1538Richter, VincentStollberg98mSchB4 0:53:260:22:264
129 421453Lorenz, UlrikeVSC Klingenthal - Ski Alpin Team68W40 100:53:310:22:314
130 431567Thron, AlenaLeipzig82W20 80:53:360:22:364
13188 1557Wollmann, BerndHoffnung 1640M706 0:53:520:22:524
132 441519Meier, ElkeEibenstock71W40 110:54:060:23:064
133 451403Bauer, SusannVital Schneeberg74W35 90:54:090:23:094
134 461499Wamser, UteLB Burgstein67W40 120:54:160:23:164
135 471487Sickor, BärbelSosa64W45 60:54:180:23:184
136 481436Heymann, Rosamrie1.FC Weiß-Grün Hirschfeld53W55 30:54:260:23:264
13789 1518Kubke, HolgerGera57M506 0:54:370:23:374
138 491515Kubbe, AnjaHolstetten84W20 90:54:470:23:474
139 501469Quintel, AnitaModautal66W45 70:55:130:24:134
14090 1440Kath, GuntherTTV Auerhammer39M707 0:55:440:24:444
141 511539Richter, SilkeStollberg71W40 130:55:590:24:594
142 521536Kautzsch, KatrinStollberg70W40 140:56:000:25:004
143 531404Bennewitz, Anjachemnitz87W20 100:56:220:25:224
14491 1531Voigt, MirkoZwönitz79M304 0:57:260:26:264
145 541414Fankhänel, ChristineLG Vogtland47W60 20:59:110:28:114
146 551516Wunder, ViolaLG Burgstein62W45 80:59:220:28:224
14792 1511Raschauer, EdgarFHSG Stralsund36M753 1:00:520:29:524
148 561438Höhne, LenaLVB Leipzig99wSchB 41:01:550:30:554
149 571446Kremling, KerstinTV Helmbrechts67W40 151:06:490:35:494
150 581420Frey, SimoneLG eins63W45 91:07:020:36:024
151 591490Stübler, GundaUSV-Dresden65W45 101:07:460:36:464
15293 1445Kraut, HaraldChemnitz29M801 1:09:340:38:344
153 601504Möckel, AnnaEibenstock98wSchB 51:13:150:42:154
154 611484Seidel, KarinMarathonverein Eibenstock e.V.68W40 161:13:160:42:164
155 621476Schmidt, SylkePulsnitz64W45 111:14:250:43:254
156 631526Werner, SigridVital Center Schneeberg56W55 41:16:170:45:174
Zurück zum Seiteninhalt